sensor_id;sensor_type;location;lat;lon;timestamp;P1;durP1;ratioP1;P2;durP2;ratioP2
22985;SDS011;11659;51.092;7.080;2022-10-24T00:00:41;4.80;;;2.30;;
22985;SDS011;11659;51.092;7.080;2022-10-24T00:03:08;3.03;;;2.50;;
22985;SDS011;11659;51.092;7.080;2022-10-24T00:05:34;7.43;;;2.90;;
22985;SDS011;11659;51.092;7.080;2022-10-24T00:08:00;5.57;;;2.67;;
22985;SDS011;11659;51.092;7.080;2022-10-24T00:10:28;4.60;;;2.60;;
22985;SDS011;11659;51.092;7.080;2022-10-24T00:12:54;5.33;;;3.07;;
22985;SDS011;11659;51.092;7.080;2022-10-24T00:15:20;7.43;;;2.60;;
22985;SDS011;11659;51.092;7.080;2022-10-24T00:17:46;4.13;;;2.33;;
22985;SDS011;11659;51.092;7.080;2022-10-24T00:20:12;5.43;;;2.37;;
22985;SDS011;11659;51.092;7.080;2022-10-24T00:22:38;4.60;;;2.20;;
22985;SDS011;11659;51.092;7.080;2022-10-24T00:25:04;5.33;;;2.50;;
22985;SDS011;11659;51.092;7.080;2022-10-24T00:27:33;4.57;;;2.80;;
22985;SDS011;11659;51.092;7.080;2022-10-24T00:30:00;5.03;;;2.50;;
22985;SDS011;11659;51.092;7.080;2022-10-24T00:32:27;6.53;;;2.50;;
22985;SDS011;11659;51.092;7.080;2022-10-24T00:34:53;5.03;;;2.37;;
22985;SDS011;11659;51.092;7.080;2022-10-24T00:37:19;4.93;;;2.30;;
22985;SDS011;11659;51.092;7.080;2022-10-24T00:39:46;4.97;;;2.13;;
22985;SDS011;11659;51.092;7.080;2022-10-24T00:42:12;8.17;;;2.30;;
22985;SDS011;11659;51.092;7.080;2022-10-24T00:44:40;5.70;;;2.03;;
22985;SDS011;11659;51.092;7.080;2022-10-24T00:47:07;4.53;;;2.47;;
22985;SDS011;11659;51.092;7.080;2022-10-24T00:49:39;5.23;;;2.53;;
22985;SDS011;11659;51.092;7.080;2022-10-24T00:52:10;4.50;;;2.10;;
22985;SDS011;11659;51.092;7.080;2022-10-24T00:54:37;4.60;;;2.90;;
22985;SDS011;11659;51.092;7.080;2022-10-24T00:57:06;4.90;;;2.10;;
22985;SDS011;11659;51.092;7.080;2022-10-24T00:59:36;7.40;;;2.17;;
22985;SDS011;11659;51.092;7.080;2022-10-24T01:02:07;5.17;;;2.40;;
22985;SDS011;11659;51.092;7.080;2022-10-24T01:04:33;7.10;;;2.50;;
22985;SDS011;11659;51.092;7.080;2022-10-24T01:07:00;4.23;;;2.10;;
22985;SDS011;11659;51.092;7.080;2022-10-24T01:09:43;4.03;;;2.10;;
22985;SDS011;11659;51.092;7.080;2022-10-24T01:12:26;6.60;;;2.30;;
22985;SDS011;11659;51.092;7.080;2022-10-24T01:15:03;3.87;;;2.20;;
22985;SDS011;11659;51.092;7.080;2022-10-24T01:17:40;7.20;;;2.53;;
22985;SDS011;11659;51.092;7.080;2022-10-24T01:23:21;3.93;;;2.10;;
22985;SDS011;11659;51.092;7.080;2022-10-24T01:25:57;7.57;;;2.73;;
22985;SDS011;11659;51.092;7.080;2022-10-24T01:28:36;4.73;;;2.43;;
22985;SDS011;11659;51.092;7.080;2022-10-24T01:31:15;4.90;;;2.13;;
22985;SDS011;11659;51.092;7.080;2022-10-24T01:33:48;4.23;;;2.33;;
22985;SDS011;11659;51.092;7.080;2022-10-24T01:36:20;3.20;;;1.90;;
22985;SDS011;11659;51.092;7.080;2022-10-24T01:38:52;4.27;;;2.27;;
22985;SDS011;11659;51.092;7.080;2022-10-24T01:41:22;3.67;;;1.93;;
22985;SDS011;11659;51.092;7.080;2022-10-24T01:43:51;4.43;;;2.00;;
22985;SDS011;11659;51.092;7.080;2022-10-24T01:46:23;4.27;;;2.07;;
22985;SDS011;11659;51.092;7.080;2022-10-24T01:48:53;4.87;;;2.00;;
22985;SDS011;11659;51.092;7.080;2022-10-24T01:51:23;6.33;;;2.10;;
22985;SDS011;11659;51.092;7.080;2022-10-24T01:53:52;7.43;;;1.83;;
22985;SDS011;11659;51.092;7.080;2022-10-24T01:56:20;3.07;;;1.97;;
22985;SDS011;11659;51.092;7.080;2022-10-24T01:58:48;5.07;;;2.27;;
22985;SDS011;11659;51.092;7.080;2022-10-24T02:01:15;5.40;;;2.37;;
22985;SDS011;11659;51.092;7.080;2022-10-24T02:03:48;6.77;;;2.27;;
22985;SDS011;11659;51.092;7.080;2022-10-24T02:06:19;5.57;;;2.27;;
22985;SDS011;11659;51.092;7.080;2022-10-24T02:08:50;3.97;;;2.20;;
22985;SDS011;11659;51.092;7.080;2022-10-24T02:11:18;6.40;;;2.57;;
22985;SDS011;11659;51.092;7.080;2022-10-24T02:13:45;4.63;;;2.30;;
22985;SDS011;11659;51.092;7.080;2022-10-24T02:16:18;3.30;;;1.93;;
22985;SDS011;11659;51.092;7.080;2022-10-24T02:18:46;4.77;;;2.00;;
22985;SDS011;11659;51.092;7.080;2022-10-24T02:21:16;6.40;;;2.20;;
22985;SDS011;11659;51.092;7.080;2022-10-24T02:23:50;3.60;;;2.23;;
22985;SDS011;11659;51.092;7.080;2022-10-24T02:26:24;5.97;;;2.37;;
22985;SDS011;11659;51.092;7.080;2022-10-24T02:28:55;4.77;;;2.40;;
22985;SDS011;11659;51.092;7.080;2022-10-24T02:31:29;6.27;;;2.40;;
22985;SDS011;11659;51.092;7.080;2022-10-24T02:33:59;7.60;;;2.70;;
22985;SDS011;11659;51.092;7.080;2022-10-24T02:36:28;3.20;;;1.90;;
22985;SDS011;11659;51.092;7.080;2022-10-24T02:38:56;4.47;;;2.33;;
22985;SDS011;11659;51.092;7.080;2022-10-24T02:41:24;5.20;;;2.23;;
22985;SDS011;11659;51.092;7.080;2022-10-24T02:43:54;4.13;;;2.20;;
22985;SDS011;11659;51.092;7.080;2022-10-24T02:46:21;5.43;;;2.10;;
22985;SDS011;11659;51.092;7.080;2022-10-24T02:48:49;6.23;;;2.73;;
22985;SDS011;11659;51.092;7.080;2022-10-24T02:51:21;5.73;;;2.50;;
22985;SDS011;11659;51.092;7.080;2022-10-24T02:53:51;4.17;;;1.93;;
22985;SDS011;11659;51.092;7.080;2022-10-24T02:56:17;5.83;;;2.67;;
22985;SDS011;11659;51.092;7.080;2022-10-24T02:58:43;6.87;;;2.50;;
22985;SDS011;11659;51.092;7.080;2022-10-24T03:01:09;5.70;;;2.70;;
22985;SDS011;11659;51.092;7.080;2022-10-24T03:03:35;6.80;;;2.43;;
22985;SDS011;11659;51.092;7.080;2022-10-24T03:06:01;3.37;;;2.17;;
22985;SDS011;11659;51.092;7.080;2022-10-24T03:08:28;6.20;;;2.07;;
22985;SDS011;11659;51.092;7.080;2022-10-24T03:10:54;5.60;;;2.40;;
22985;SDS011;11659;51.092;7.080;2022-10-24T03:13:20;4.63;;;2.30;;
22985;SDS011;11659;51.092;7.080;2022-10-24T03:15:46;7.23;;;2.57;;
22985;SDS011;11659;51.092;7.080;2022-10-24T03:18:12;4.70;;;2.30;;
22985;SDS011;11659;51.092;7.080;2022-10-24T03:20:38;4.80;;;2.37;;
22985;SDS011;11659;51.092;7.080;2022-10-24T03:23:04;7.10;;;2.20;;
22985;SDS011;11659;51.092;7.080;2022-10-24T03:25:31;5.00;;;2.17;;
22985;SDS011;11659;51.092;7.080;2022-10-24T03:27:57;4.00;;;1.90;;
22985;SDS011;11659;51.092;7.080;2022-10-24T03:30:23;5.17;;;1.90;;
22985;SDS011;11659;51.092;7.080;2022-10-24T03:32:49;4.43;;;2.00;;
22985;SDS011;11659;51.092;7.080;2022-10-24T03:35:15;4.97;;;2.10;;
22985;SDS011;11659;51.092;7.080;2022-10-24T03:37:41;4.70;;;1.70;;
22985;SDS011;11659;51.092;7.080;2022-10-24T03:40:07;6.27;;;2.20;;
22985;SDS011;11659;51.092;7.080;2022-10-24T03:42:35;4.30;;;2.20;;
22985;SDS011;11659;51.092;7.080;2022-10-24T03:45:01;4.93;;;2.10;;
22985;SDS011;11659;51.092;7.080;2022-10-24T03:47:28;4.73;;;1.90;;
22985;SDS011;11659;51.092;7.080;2022-10-24T03:49:53;3.07;;;1.70;;
22985;SDS011;11659;51.092;7.080;2022-10-24T03:52:19;3.83;;;2.20;;
22985;SDS011;11659;51.092;7.080;2022-10-24T03:54:45;5.67;;;2.00;;
22985;SDS011;11659;51.092;7.080;2022-10-24T03:57:11;4.17;;;2.10;;
22985;SDS011;11659;51.092;7.080;2022-10-24T03:59:39;4.40;;;1.70;;
22985;SDS011;11659;51.092;7.080;2022-10-24T04:02:05;3.80;;;1.83;;
22985;SDS011;11659;51.092;7.080;2022-10-24T04:04:31;3.80;;;1.80;;
22985;SDS011;11659;51.092;7.080;2022-10-24T04:06:57;3.10;;;2.00;;
22985;SDS011;11659;51.092;7.080;2022-10-24T04:09:24;3.87;;;2.10;;
22985;SDS011;11659;51.092;7.080;2022-10-24T04:11:50;3.50;;;1.90;;
22985;SDS011;11659;51.092;7.080;2022-10-24T04:14:17;2.60;;;1.60;;
22985;SDS011;11659;51.092;7.080;2022-10-24T04:16:45;4.80;;;1.90;;
22985;SDS011;11659;51.092;7.080;2022-10-24T04:19:11;4.97;;;2.50;;
22985;SDS011;11659;51.092;7.080;2022-10-24T04:21:37;7.43;;;2.20;;
22985;SDS011;11659;51.092;7.080;2022-10-24T04:24:03;5.17;;;1.67;;
22985;SDS011;11659;51.092;7.080;2022-10-24T04:26:29;5.07;;;1.83;;
22985;SDS011;11659;51.092;7.080;2022-10-24T04:28:55;3.97;;;2.27;;
22985;SDS011;11659;51.092;7.080;2022-10-24T04:31:21;5.60;;;2.03;;
22985;SDS011;11659;51.092;7.080;2022-10-24T04:33:48;4.17;;;1.60;;
22985;SDS011;11659;51.092;7.080;2022-10-24T04:36:15;3.47;;;1.93;;
22985;SDS011;11659;51.092;7.080;2022-10-24T04:38:41;2.57;;;1.70;;
22985;SDS011;11659;51.092;7.080;2022-10-24T04:41:07;3.40;;;1.90;;
22985;SDS011;11659;51.092;7.080;2022-10-24T04:43:33;2.87;;;1.87;;
22985;SDS011;11659;51.092;7.080;2022-10-24T04:45:59;4.97;;;1.70;;
22985;SDS011;11659;51.092;7.080;2022-10-24T04:48:26;4.37;;;1.80;;
22985;SDS011;11659;51.092;7.080;2022-10-24T04:50:54;5.07;;;1.60;;
22985;SDS011;11659;51.092;7.080;2022-10-24T04:53:20;3.80;;;1.80;;
22985;SDS011;11659;51.092;7.080;2022-10-24T04:55:46;4.13;;;1.67;;
22985;SDS011;11659;51.092;7.080;2022-10-24T04:58:12;3.30;;;1.67;;
22985;SDS011;11659;51.092;7.080;2022-10-24T05:00:38;2.63;;;1.67;;
22985;SDS011;11659;51.092;7.080;2022-10-24T05:03:06;3.10;;;1.37;;
22985;SDS011;11659;51.092;7.080;2022-10-24T05:05:33;4.07;;;1.60;;
22985;SDS011;11659;51.092;7.080;2022-10-24T05:08:00;5.77;;;1.90;;
22985;SDS011;11659;51.092;7.080;2022-10-24T05:10:26;4.53;;;1.50;;
22985;SDS011;11659;51.092;7.080;2022-10-24T05:12:52;5.07;;;1.53;;
22985;SDS011;11659;51.092;7.080;2022-10-24T05:15:18;2.80;;;1.60;;
22985;SDS011;11659;51.092;7.080;2022-10-24T05:17:44;4.27;;;1.60;;
22985;SDS011;11659;51.092;7.080;2022-10-24T05:20:10;3.33;;;1.60;;
22985;SDS011;11659;51.092;7.080;2022-10-24T05:22:36;2.67;;;1.47;;
22985;SDS011;11659;51.092;7.080;2022-10-24T05:25:04;3.90;;;1.67;;
22985;SDS011;11659;51.092;7.080;2022-10-24T05:27:31;2.53;;;1.60;;
22985;SDS011;11659;51.092;7.080;2022-10-24T05:29:57;2.97;;;1.33;;
22985;SDS011;11659;51.092;7.080;2022-10-24T05:32:23;2.67;;;1.40;;
22985;SDS011;11659;51.092;7.080;2022-10-24T05:34:49;2.87;;;1.70;;
22985;SDS011;11659;51.092;7.080;2022-10-24T05:37:15;3.17;;;1.33;;
22985;SDS011;11659;51.092;7.080;2022-10-24T05:39:41;2.80;;;1.60;;
22985;SDS011;11659;51.092;7.080;2022-10-24T05:42:08;2.60;;;1.70;;
22985;SDS011;11659;51.092;7.080;2022-10-24T05:44:35;3.23;;;1.60;;
22985;SDS011;11659;51.092;7.080;2022-10-24T05:47:01;2.50;;;1.50;;
22985;SDS011;11659;51.092;7.080;2022-10-24T05:49:57;2.20;;;1.13;;
22985;SDS011;11659;51.092;7.080;2022-10-24T05:52:22;3.20;;;1.37;;
22985;SDS011;11659;51.092;7.080;2022-10-24T05:54:48;3.27;;;1.30;;
22985;SDS011;11659;51.092;7.080;2022-10-24T05:57:16;3.47;;;1.50;;
22985;SDS011;11659;51.092;7.080;2022-10-24T05:59:42;2.07;;;1.67;;
22985;SDS011;11659;51.092;7.080;2022-10-24T06:02:08;3.50;;;1.30;;
22985;SDS011;11659;51.092;7.080;2022-10-24T06:04:40;2.50;;;1.17;;
22985;SDS011;11659;51.092;7.080;2022-10-24T06:07:06;2.87;;;1.43;;
22985;SDS011;11659;51.092;7.080;2022-10-24T06:09:32;3.27;;;1.50;;
22985;SDS011;11659;51.092;7.080;2022-10-24T06:11:58;2.93;;;1.53;;
22985;SDS011;11659;51.092;7.080;2022-10-24T06:14:25;3.10;;;1.40;;
22985;SDS011;11659;51.092;7.080;2022-10-24T06:16:51;2.47;;;1.53;;
22985;SDS011;11659;51.092;7.080;2022-10-24T06:19:17;3.03;;;1.23;;
22985;SDS011;11659;51.092;7.080;2022-10-24T06:21:43;2.43;;;1.23;;
22985;SDS011;11659;51.092;7.080;2022-10-24T06:24:09;2.00;;;1.30;;
22985;SDS011;11659;51.092;7.080;2022-10-24T06:26:35;4.07;;;1.50;;
22985;SDS011;11659;51.092;7.080;2022-10-24T06:29:01;3.90;;;1.60;;
22985;SDS011;11659;51.092;7.080;2022-10-24T06:31:28;1.87;;;1.00;;
22985;SDS011;11659;51.092;7.080;2022-10-24T06:33:54;3.63;;;1.30;;
22985;SDS011;11659;51.092;7.080;2022-10-24T06:36:20;2.53;;;1.40;;
22985;SDS011;11659;51.092;7.080;2022-10-24T06:38:46;2.80;;;1.30;;
22985;SDS011;11659;51.092;7.080;2022-10-24T06:41:13;4.20;;;1.50;;
22985;SDS011;11659;51.092;7.080;2022-10-24T06:43:41;3.77;;;1.33;;
22985;SDS011;11659;51.092;7.080;2022-10-24T06:46:08;3.80;;;1.50;;
22985;SDS011;11659;51.092;7.080;2022-10-24T06:48:38;2.30;;;1.20;;
22985;SDS011;11659;51.092;7.080;2022-10-24T06:51:06;2.13;;;1.27;;
22985;SDS011;11659;51.092;7.080;2022-10-24T06:53:32;4.33;;;1.47;;
22985;SDS011;11659;51.092;7.080;2022-10-24T06:55:59;2.60;;;1.40;;
22985;SDS011;11659;51.092;7.080;2022-10-24T06:58:28;2.27;;;1.17;;
22985;SDS011;11659;51.092;7.080;2022-10-24T07:00:55;2.33;;;1.20;;
22985;SDS011;11659;51.092;7.080;2022-10-24T07:03:21;4.07;;;1.30;;
22985;SDS011;11659;51.092;7.080;2022-10-24T07:05:48;2.37;;;1.20;;
22985;SDS011;11659;51.092;7.080;2022-10-24T07:08:14;4.83;;;1.60;;
22985;SDS011;11659;51.092;7.080;2022-10-24T07:10:40;2.53;;;1.57;;
22985;SDS011;11659;51.092;7.080;2022-10-24T07:13:06;2.57;;;1.20;;
22985;SDS011;11659;51.092;7.080;2022-10-24T07:15:32;2.10;;;1.23;;
22985;SDS011;11659;51.092;7.080;2022-10-24T07:17:58;2.00;;;1.33;;
22985;SDS011;11659;51.092;7.080;2022-10-24T07:20:24;4.73;;;1.30;;
22985;SDS011;11659;51.092;7.080;2022-10-24T07:22:52;3.83;;;1.70;;
22985;SDS011;11659;51.092;7.080;2022-10-24T07:25:18;2.47;;;1.40;;
22985;SDS011;11659;51.092;7.080;2022-10-24T07:27:44;3.13;;;1.57;;
22985;SDS011;11659;51.092;7.080;2022-10-24T07:30:12;3.13;;;1.27;;
22985;SDS011;11659;51.092;7.080;2022-10-24T07:32:40;4.33;;;1.43;;
22985;SDS011;11659;51.092;7.080;2022-10-24T07:35:07;5.43;;;1.50;;
22985;SDS011;11659;51.092;7.080;2022-10-24T07:37:35;2.07;;;1.30;;
22985;SDS011;11659;51.092;7.080;2022-10-24T07:40:02;3.13;;;1.33;;
22985;SDS011;11659;51.092;7.080;2022-10-24T07:42:29;3.30;;;1.33;;
22985;SDS011;11659;51.092;7.080;2022-10-24T07:44:55;3.37;;;1.40;;
22985;SDS011;11659;51.092;7.080;2022-10-24T07:47:20;2.50;;;1.10;;
22985;SDS011;11659;51.092;7.080;2022-10-24T07:49:46;2.93;;;1.57;;
22985;SDS011;11659;51.092;7.080;2022-10-24T07:52:12;3.50;;;1.20;;
22985;SDS011;11659;51.092;7.080;2022-10-24T07:54:38;2.17;;;1.33;;
22985;SDS011;11659;51.092;7.080;2022-10-24T07:57:05;2.87;;;1.33;;
22985;SDS011;11659;51.092;7.080;2022-10-24T07:59:31;3.73;;;1.23;;
22985;SDS011;11659;51.092;7.080;2022-10-24T08:01:57;4.67;;;1.43;;
22985;SDS011;11659;51.092;7.080;2022-10-24T08:04:23;2.47;;;1.07;;
22985;SDS011;11659;51.092;7.080;2022-10-24T08:06:49;2.40;;;1.10;;
22985;SDS011;11659;51.092;7.080;2022-10-24T08:09:15;6.47;;;1.20;;
22985;SDS011;11659;51.092;7.080;2022-10-24T08:11:42;2.70;;;1.23;;
22985;SDS011;11659;51.092;7.080;2022-10-24T08:14:09;1.83;;;1.10;;
22985;SDS011;11659;51.092;7.080;2022-10-24T08:16:35;2.73;;;1.00;;
22985;SDS011;11659;51.092;7.080;2022-10-24T08:19:02;1.53;;;0.90;;
22985;SDS011;11659;51.092;7.080;2022-10-24T08:21:28;2.77;;;1.17;;
22985;SDS011;11659;51.092;7.080;2022-10-24T08:23:55;1.97;;;1.13;;
22985;SDS011;11659;51.092;7.080;2022-10-24T08:26:22;4.30;;;1.17;;
22985;SDS011;11659;51.092;7.080;2022-10-24T08:28:49;2.27;;;1.10;;
22985;SDS011;11659;51.092;7.080;2022-10-24T08:31:17;2.43;;;1.03;;
22985;SDS011;11659;51.092;7.080;2022-10-24T08:33:45;1.27;;;1.17;;
22985;SDS011;11659;51.092;7.080;2022-10-24T08:36:13;3.73;;;0.93;;
22985;SDS011;11659;51.092;7.080;2022-10-24T08:38:41;2.40;;;1.00;;
22985;SDS011;11659;51.092;7.080;2022-10-24T08:41:08;2.70;;;1.00;;
22985;SDS011;11659;51.092;7.080;2022-10-24T08:43:39;2.63;;;1.07;;
22985;SDS011;11659;51.092;7.080;2022-10-24T08:46:07;2.83;;;1.13;;
22985;SDS011;11659;51.092;7.080;2022-10-24T08:48:47;3.23;;;1.30;;
22985;SDS011;11659;51.092;7.080;2022-10-24T08:51:18;2.57;;;1.00;;
22985;SDS011;11659;51.092;7.080;2022-10-24T08:53:55;2.20;;;1.30;;
22985;SDS011;11659;51.092;7.080;2022-10-24T08:56:23;2.13;;;0.93;;
22985;SDS011;11659;51.092;7.080;2022-10-24T08:58:52;2.93;;;1.00;;
22985;SDS011;11659;51.092;7.080;2022-10-24T09:01:20;2.10;;;1.00;;
22985;SDS011;11659;51.092;7.080;2022-10-24T09:03:57;1.67;;;0.90;;
22985;SDS011;11659;51.092;7.080;2022-10-24T09:06:27;3.97;;;1.53;;
22985;SDS011;11659;51.092;7.080;2022-10-24T09:08:56;1.80;;;1.00;;
22985;SDS011;11659;51.092;7.080;2022-10-24T09:11:27;1.87;;;1.00;;
22985;SDS011;11659;51.092;7.080;2022-10-24T09:14:11;2.50;;;1.10;;
22985;SDS011;11659;51.092;7.080;2022-10-24T09:16:38;1.43;;;0.80;;
22985;SDS011;11659;51.092;7.080;2022-10-24T09:19:08;3.07;;;1.00;;
22985;SDS011;11659;51.092;7.080;2022-10-24T09:21:39;2.00;;;1.30;;
22985;SDS011;11659;51.092;7.080;2022-10-24T09:24:08;3.97;;;1.10;;
22985;SDS011;11659;51.092;7.080;2022-10-24T09:26:41;2.30;;;1.17;;
22985;SDS011;11659;51.092;7.080;2022-10-24T09:29:10;2.27;;;1.00;;
22985;SDS011;11659;51.092;7.080;2022-10-24T09:31:35;1.97;;;0.70;;
22985;SDS011;11659;51.092;7.080;2022-10-24T09:34:02;2.93;;;1.27;;
22985;SDS011;11659;51.092;7.080;2022-10-24T09:36:29;3.70;;;0.97;;
22985;SDS011;11659;51.092;7.080;2022-10-24T09:38:55;2.77;;;1.30;;
22985;SDS011;11659;51.092;7.080;2022-10-24T09:41:26;2.70;;;1.03;;
22985;SDS011;11659;51.092;7.080;2022-10-24T09:43:55;2.50;;;1.10;;
22985;SDS011;11659;51.092;7.080;2022-10-24T09:46:23;1.20;;;0.80;;
22985;SDS011;11659;51.092;7.080;2022-10-24T09:48:53;1.83;;;0.90;;
22985;SDS011;11659;51.092;7.080;2022-10-24T09:51:26;2.70;;;1.10;;
22985;SDS011;11659;51.092;7.080;2022-10-24T09:54:06;4.50;;;1.60;;
22985;SDS011;11659;51.092;7.080;2022-10-24T09:56:55;3.87;;;1.20;;
22985;SDS011;11659;51.092;7.080;2022-10-24T09:59:28;3.70;;;1.33;;
22985;SDS011;11659;51.092;7.080;2022-10-24T10:02:06;3.87;;;1.30;;
22985;SDS011;11659;51.092;7.080;2022-10-24T10:04:44;3.23;;;1.00;;
22985;SDS011;11659;51.092;7.080;2022-10-24T10:07:11;2.50;;;1.00;;
22985;SDS011;11659;51.092;7.080;2022-10-24T10:09:46;2.50;;;1.27;;
22985;SDS011;11659;51.092;7.080;2022-10-24T10:12:23;1.50;;;0.80;;
22985;SDS011;11659;51.092;7.080;2022-10-24T10:14:51;2.07;;;0.87;;
22985;SDS011;11659;51.092;7.080;2022-10-24T10:17:19;1.07;;;0.67;;
22985;SDS011;11659;51.092;7.080;2022-10-24T10:19:47;2.17;;;0.90;;
22985;SDS011;11659;51.092;7.080;2022-10-24T10:22:20;2.90;;;1.40;;
22985;SDS011;11659;51.092;7.080;2022-10-24T10:24:49;1.77;;;0.90;;
22985;SDS011;11659;51.092;7.080;2022-10-24T10:27:23;2.30;;;0.93;;
22985;SDS011;11659;51.092;7.080;2022-10-24T10:30:06;4.03;;;1.10;;
22985;SDS011;11659;51.092;7.080;2022-10-24T10:32:44;3.67;;;1.00;;
22985;SDS011;11659;51.092;7.080;2022-10-24T10:35:18;2.27;;;1.10;;
22985;SDS011;11659;51.092;7.080;2022-10-24T10:37:47;1.87;;;0.87;;
22985;SDS011;11659;51.092;7.080;2022-10-24T10:40:25;3.03;;;0.90;;
22985;SDS011;11659;51.092;7.080;2022-10-24T10:42:58;3.17;;;0.83;;
22985;SDS011;11659;51.092;7.080;2022-10-24T10:45:39;3.87;;;0.93;;
22985;SDS011;11659;51.092;7.080;2022-10-24T10:48:13;2.73;;;0.93;;
22985;SDS011;11659;51.092;7.080;2022-10-24T10:50:55;1.47;;;0.70;;
22985;SDS011;11659;51.092;7.080;2022-10-24T10:53:29;2.27;;;0.90;;
22985;SDS011;11659;51.092;7.080;2022-10-24T10:56:04;1.10;;;0.80;;
22985;SDS011;11659;51.092;7.080;2022-10-24T10:58:40;1.67;;;0.80;;
22985;SDS011;11659;51.092;7.080;2022-10-24T11:01:14;2.50;;;1.07;;
22985;SDS011;11659;51.092;7.080;2022-10-24T11:03:48;1.50;;;0.77;;
22985;SDS011;11659;51.092;7.080;2022-10-24T11:06:22;2.80;;;0.80;;
22985;SDS011;11659;51.092;7.080;2022-10-24T11:11:56;3.70;;;0.87;;
22985;SDS011;11659;51.092;7.080;2022-10-24T11:14:29;4.00;;;0.97;;
22985;SDS011;11659;51.092;7.080;2022-10-24T11:17:00;3.90;;;1.00;;
22985;SDS011;11659;51.092;7.080;2022-10-24T11:19:31;2.50;;;1.30;;
22985;SDS011;11659;51.092;7.080;2022-10-24T11:22:04;2.13;;;0.88;;
22985;SDS011;11659;51.092;7.080;2022-10-24T11:24:39;3.17;;;1.00;;
22985;SDS011;11659;51.092;7.080;2022-10-24T11:27:11;2.80;;;0.83;;
22985;SDS011;11659;51.092;7.080;2022-10-24T11:29:42;4.73;;;1.00;;
22985;SDS011;11659;51.092;7.080;2022-10-24T11:32:15;2.87;;;0.90;;
22985;SDS011;11659;51.092;7.080;2022-10-24T11:34:45;3.00;;;1.17;;
22985;SDS011;11659;51.092;7.080;2022-10-24T11:37:18;2.97;;;0.90;;
22985;SDS011;11659;51.092;7.080;2022-10-24T11:39:50;3.07;;;1.00;;
22985;SDS011;11659;51.092;7.080;2022-10-24T11:42:22;2.25;;;1.00;;
22985;SDS011;11659;51.092;7.080;2022-10-24T11:44:54;4.07;;;1.00;;
22985;SDS011;11659;51.092;7.080;2022-10-24T11:47:32;2.63;;;0.90;;
22985;SDS011;11659;51.092;7.080;2022-10-24T11:50:16;3.00;;;1.07;;
22985;SDS011;11659;51.092;7.080;2022-10-24T11:52:47;2.03;;;0.90;;
22985;SDS011;11659;51.092;7.080;2022-10-24T11:55:16;1.80;;;0.80;;
22985;SDS011;11659;51.092;7.080;2022-10-24T11:57:47;3.33;;;1.20;;
22985;SDS011;11659;51.092;7.080;2022-10-24T12:00:16;2.47;;;1.00;;
22985;SDS011;11659;51.092;7.080;2022-10-24T12:06:09;1.40;;;0.80;;
22985;SDS011;11659;51.092;7.080;2022-10-24T12:08:56;3.77;;;0.97;;
22985;SDS011;11659;51.092;7.080;2022-10-24T12:11:42;2.53;;;0.90;;
22985;SDS011;11659;51.092;7.080;2022-10-24T12:14:34;1.93;;;0.80;;
22985;SDS011;11659;51.092;7.080;2022-10-24T12:17:28;2.40;;;0.90;;
22985;SDS011;11659;51.092;7.080;2022-10-24T12:20:10;2.70;;;1.20;;
22985;SDS011;11659;51.092;7.080;2022-10-24T12:22:40;2.10;;;0.97;;
22985;SDS011;11659;51.092;7.080;2022-10-24T12:25:16;3.17;;;1.00;;
22985;SDS011;11659;51.092;7.080;2022-10-24T12:27:50;3.20;;;1.10;;
22985;SDS011;11659;51.092;7.080;2022-10-24T12:30:19;3.40;;;1.13;;
22985;SDS011;11659;51.092;7.080;2022-10-24T12:32:49;5.60;;;1.70;;
22985;SDS011;11659;51.092;7.080;2022-10-24T12:35:31;2.83;;;0.97;;
22985;SDS011;11659;51.092;7.080;2022-10-24T12:38:16;2.17;;;1.00;;
22985;SDS011;11659;51.092;7.080;2022-10-24T12:41:02;2.23;;;0.83;;
22985;SDS011;11659;51.092;7.080;2022-10-24T12:46:53;2.03;;;0.93;;
22985;SDS011;11659;51.092;7.080;2022-10-24T12:49:24;2.77;;;0.87;;
22985;SDS011;11659;51.092;7.080;2022-10-24T12:51:52;3.07;;;0.90;;
22985;SDS011;11659;51.092;7.080;2022-10-24T12:54:19;3.33;;;0.87;;
22985;SDS011;11659;51.092;7.080;2022-10-24T12:57:20;3.00;;;1.10;;
22985;SDS011;11659;51.092;7.080;2022-10-24T12:59:50;1.90;;;0.83;;
22985;SDS011;11659;51.092;7.080;2022-10-24T13:02:25;3.67;;;0.97;;
22985;SDS011;11659;51.092;7.080;2022-10-24T13:05:15;4.10;;;1.20;;
22985;SDS011;11659;51.092;7.080;2022-10-24T13:07:56;2.63;;;0.80;;
22985;SDS011;11659;51.092;7.080;2022-10-24T13:10:34;1.87;;;0.80;;
22985;SDS011;11659;51.092;7.080;2022-10-24T13:13:19;2.70;;;1.03;;
22985;SDS011;11659;51.092;7.080;2022-10-24T13:16:02;1.00;;;0.83;;
22985;SDS011;11659;51.092;7.080;2022-10-24T13:18:44;3.30;;;1.20;;
22985;SDS011;11659;51.092;7.080;2022-10-24T13:21:19;2.83;;;1.27;;
22985;SDS011;11659;51.092;7.080;2022-10-24T13:23:51;2.13;;;0.87;;
22985;SDS011;11659;51.092;7.080;2022-10-24T13:26:34;2.77;;;1.03;;
22985;SDS011;11659;51.092;7.080;2022-10-24T13:29:02;4.27;;;1.20;;
22985;SDS011;11659;51.092;7.080;2022-10-24T13:34:16;2.33;;;1.03;;
22985;SDS011;11659;51.092;7.080;2022-10-24T13:36:45;1.73;;;0.90;;
22985;SDS011;11659;51.092;7.080;2022-10-24T13:39:15;3.07;;;0.80;;
22985;SDS011;11659;51.092;7.080;2022-10-24T13:41:43;2.47;;;1.00;;
22985;SDS011;11659;51.092;7.080;2022-10-24T13:44:14;1.40;;;0.70;;
22985;SDS011;11659;51.092;7.080;2022-10-24T13:46:47;2.80;;;0.80;;
22985;SDS011;11659;51.092;7.080;2022-10-24T13:49:19;3.40;;;1.00;;
22985;SDS011;11659;51.092;7.080;2022-10-24T13:51:51;3.53;;;1.00;;
22985;SDS011;11659;51.092;7.080;2022-10-24T13:54:23;2.37;;;1.03;;
22985;SDS011;11659;51.092;7.080;2022-10-24T13:56:53;4.37;;;1.30;;
22985;SDS011;11659;51.092;7.080;2022-10-24T13:59:29;3.20;;;1.10;;
22985;SDS011;11659;51.092;7.080;2022-10-24T14:01:56;2.97;;;1.03;;
22985;SDS011;11659;51.092;7.080;2022-10-24T14:04:26;3.90;;;1.00;;
22985;SDS011;11659;51.092;7.080;2022-10-24T14:06:58;2.67;;;0.77;;
22985;SDS011;11659;51.092;7.080;2022-10-24T14:09:25;2.23;;;1.00;;
22985;SDS011;11659;51.092;7.080;2022-10-24T14:11:51;2.57;;;0.93;;
22985;SDS011;11659;51.092;7.080;2022-10-24T14:14:24;2.17;;;0.87;;
22985;SDS011;11659;51.092;7.080;2022-10-24T14:17:03;2.20;;;0.90;;
22985;SDS011;11659;51.092;7.080;2022-10-24T14:19:32;3.13;;;0.90;;
22985;SDS011;11659;51.092;7.080;2022-10-24T14:22:00;2.00;;;1.00;;
22985;SDS011;11659;51.092;7.080;2022-10-24T14:24:29;1.63;;;0.80;;
22985;SDS011;11659;51.092;7.080;2022-10-24T14:26:55;2.37;;;0.90;;
22985;SDS011;11659;51.092;7.080;2022-10-24T14:29:23;2.23;;;0.97;;
22985;SDS011;11659;51.092;7.080;2022-10-24T14:31:55;3.07;;;1.17;;
22985;SDS011;11659;51.092;7.080;2022-10-24T14:34:24;2.50;;;1.00;;
22985;SDS011;11659;51.092;7.080;2022-10-24T14:36:52;3.63;;;1.10;;
22985;SDS011;11659;51.092;7.080;2022-10-24T14:39:20;2.93;;;0.77;;
22985;SDS011;11659;51.092;7.080;2022-10-24T14:41:50;2.77;;;0.80;;
22985;SDS011;11659;51.092;7.080;2022-10-24T14:44:17;2.23;;;0.80;;
22985;SDS011;11659;51.092;7.080;2022-10-24T14:46:45;2.57;;;1.13;;
22985;SDS011;11659;51.092;7.080;2022-10-24T14:49:28;4.13;;;1.10;;
22985;SDS011;11659;51.092;7.080;2022-10-24T14:51:59;2.20;;;0.87;;
22985;SDS011;11659;51.092;7.080;2022-10-24T14:54:31;2.10;;;1.13;;
22985;SDS011;11659;51.092;7.080;2022-10-24T14:56:58;3.17;;;1.27;;
22985;SDS011;11659;51.092;7.080;2022-10-24T14:59:26;1.27;;;0.63;;
22985;SDS011;11659;51.092;7.080;2022-10-24T15:02:15;3.90;;;0.80;;
22985;SDS011;11659;51.092;7.080;2022-10-24T15:04:45;2.47;;;1.10;;
22985;SDS011;11659;51.092;7.080;2022-10-24T15:07:14;2.53;;;0.93;;
22985;SDS011;11659;51.092;7.080;2022-10-24T15:09:53;3.43;;;1.17;;
22985;SDS011;11659;51.092;7.080;2022-10-24T15:12:30;3.03;;;1.00;;
22985;SDS011;11659;51.092;7.080;2022-10-24T15:17:47;3.57;;;1.13;;
22985;SDS011;11659;51.092;7.080;2022-10-24T15:20:15;3.33;;;1.10;;
22985;SDS011;11659;51.092;7.080;2022-10-24T15:22:46;4.73;;;1.20;;